sensor_id;sensor_type;location;lat;lon;timestamp;pressure;altitude;pressure_sealevel;temperature;humidity
12203;BME280;6164;42.178;24.622;2023-04-24T00:01:12;99515.16;;;9.60;100.00
12203;BME280;6164;42.178;24.622;2023-04-24T00:03:40;99510.38;;;9.47;100.00
12203;BME280;6164;42.178;24.622;2023-04-24T00:06:07;99516.41;;;9.15;100.00
12203;BME280;6164;42.178;24.622;2023-04-24T00:08:35;99516.06;;;9.10;100.00
12203;BME280;6164;42.178;24.622;2023-04-24T00:11:02;99513.25;;;9.04;100.00
12203;BME280;6164;42.178;24.622;2023-04-24T00:13:29;99520.28;;;8.95;100.00
12203;BME280;6164;42.178;24.622;2023-04-24T00:15:56;99515.13;;;8.78;100.00
12203;BME280;6164;42.178;24.622;2023-04-24T00:18:23;99512.03;;;8.82;100.00
12203;BME280;6164;42.178;24.622;2023-04-24T00:20:49;99500.59;;;8.66;100.00
12203;BME280;6164;42.178;24.622;2023-04-24T00:23:16;99507.88;;;8.80;100.00
12203;BME280;6164;42.178;24.622;2023-04-24T00:25:44;99510.06;;;8.84;100.00
12203;BME280;6164;42.178;24.622;2023-04-24T00:28:11;99511.22;;;8.90;100.00
12203;BME280;6164;42.178;24.622;2023-04-24T00:30:37;99500.22;;;8.94;100.00
12203;BME280;6164;42.178;24.622;2023-04-24T00:33:04;99507.44;;;8.84;100.00
12203;BME280;6164;42.178;24.622;2023-04-24T00:35:31;99508.56;;;8.82;100.00
12203;BME280;6164;42.178;24.622;2023-04-24T00:37:58;99507.69;;;8.73;100.00
12203;BME280;6164;42.178;24.622;2023-04-24T00:40:24;99511.00;;;8.75;100.00
12203;BME280;6164;42.178;24.622;2023-04-24T00:42:52;99511.66;;;8.69;100.00
12203;BME280;6164;42.178;24.622;2023-04-24T00:45:19;99515.00;;;8.54;100.00
12203;BME280;6164;42.178;24.622;2023-04-24T00:47:46;99512.69;;;8.51;100.00
12203;BME280;6164;42.178;24.622;2023-04-24T00:50:15;99509.91;;;8.52;100.00
12203;BME280;6164;42.178;24.622;2023-04-24T00:52:42;99516.16;;;8.51;100.00
12203;BME280;6164;42.178;24.622;2023-04-24T00:55:09;99514.84;;;8.55;100.00
12203;BME280;6164;42.178;24.622;2023-04-24T00:57:36;99506.66;;;8.58;100.00
12203;BME280;6164;42.178;24.622;2023-04-24T01:00:06;99520.16;;;8.63;100.00
12203;BME280;6164;42.178;24.622;2023-04-24T01:02:37;99516.97;;;8.52;100.00
12203;BME280;6164;42.178;24.622;2023-04-24T01:05:09;99517.44;;;8.47;100.00
12203;BME280;6164;42.178;24.622;2023-04-24T01:07:38;99520.53;;;8.35;100.00
12203;BME280;6164;42.178;24.622;2023-04-24T01:10:06;99508.97;;;8.28;100.00
12203;BME280;6164;42.178;24.622;2023-04-24T01:12:33;99484.69;;;8.16;100.00
12203;BME280;6164;42.178;24.622;2023-04-24T01:15:00;99506.41;;;8.44;100.00
12203;BME280;6164;42.178;24.622;2023-04-24T01:17:28;99505.41;;;8.19;100.00
12203;BME280;6164;42.178;24.622;2023-04-24T01:19:56;99506.38;;;7.92;100.00
12203;BME280;6164;42.178;24.622;2023-04-24T01:22:24;99508.97;;;7.84;100.00
12203;BME280;6164;42.178;24.622;2023-04-24T01:24:51;99510.56;;;7.77;100.00
12203;BME280;6164;42.178;24.622;2023-04-24T01:27:18;99516.34;;;7.63;100.00
12203;BME280;6164;42.178;24.622;2023-04-24T01:29:45;99518.47;;;7.77;100.00
12203;BME280;6164;42.178;24.622;2023-04-24T01:32:14;99495.25;;;7.73;100.00
12203;BME280;6164;42.178;24.622;2023-04-24T01:34:42;99506.34;;;7.84;100.00
12203;BME280;6164;42.178;24.622;2023-04-24T01:37:09;99520.00;;;7.88;100.00
12203;BME280;6164;42.178;24.622;2023-04-24T01:39:37;99518.41;;;7.95;100.00
12203;BME280;6164;42.178;24.622;2023-04-24T01:42:04;99519.81;;;8.07;100.00
12203;BME280;6164;42.178;24.622;2023-04-24T01:44:33;99510.31;;;8.14;100.00
12203;BME280;6164;42.178;24.622;2023-04-24T01:47:01;99511.75;;;8.26;100.00
12203;BME280;6164;42.178;24.622;2023-04-24T01:49:27;99510.66;;;8.37;100.00
12203;BME280;6164;42.178;24.622;2023-04-24T01:51:54;99500.97;;;8.37;100.00
12203;BME280;6164;42.178;24.622;2023-04-24T01:54:21;99505.25;;;8.38;100.00
12203;BME280;6164;42.178;24.622;2023-04-24T01:56:49;99504.38;;;8.30;100.00
12203;BME280;6164;42.178;24.622;2023-04-24T01:59:17;99503.06;;;8.34;100.00
12203;BME280;6164;42.178;24.622;2023-04-24T02:01:43;99495.09;;;8.43;100.00
12203;BME280;6164;42.178;24.622;2023-04-24T02:04:10;99483.75;;;8.51;100.00
12203;BME280;6164;42.178;24.622;2023-04-24T02:06:37;99447.03;;;8.33;100.00
12203;BME280;6164;42.178;24.622;2023-04-24T02:09:03;99465.03;;;8.54;100.00
12203;BME280;6164;42.178;24.622;2023-04-24T02:11:30;99494.69;;;8.72;100.00
12203;BME280;6164;42.178;24.622;2023-04-24T02:13:58;99482.72;;;8.77;100.00
12203;BME280;6164;42.178;24.622;2023-04-24T02:16:25;99476.31;;;8.80;100.00
12203;BME280;6164;42.178;24.622;2023-04-24T02:18:52;99476.00;;;8.83;100.00
12203;BME280;6164;42.178;24.622;2023-04-24T02:21:18;99471.22;;;8.86;100.00
12203;BME280;6164;42.178;24.622;2023-04-24T02:23:45;99471.72;;;8.90;100.00
12203;BME280;6164;42.178;24.622;2023-04-24T02:26:12;99464.50;;;8.92;100.00
12203;BME280;6164;42.178;24.622;2023-04-24T02:28:38;99470.09;;;8.89;100.00
12203;BME280;6164;42.178;24.622;2023-04-24T02:31:07;99461.88;;;8.92;100.00
12203;BME280;6164;42.178;24.622;2023-04-24T02:33:33;99465.00;;;8.95;100.00
12203;BME280;6164;42.178;24.622;2023-04-24T02:36:00;99465.00;;;8.95;100.00
12203;BME280;6164;42.178;24.622;2023-04-24T02:38:28;99461.19;;;8.90;100.00
12203;BME280;6164;42.178;24.622;2023-04-24T02:40:55;99461.53;;;8.95;100.00
12203;BME280;6164;42.178;24.622;2023-04-24T02:43:21;99473.22;;;8.92;100.00
12203;BME280;6164;42.178;24.622;2023-04-24T02:45:48;99485.38;;;8.85;100.00
12203;BME280;6164;42.178;24.622;2023-04-24T02:48:16;99475.50;;;8.79;100.00
12203;BME280;6164;42.178;24.622;2023-04-24T02:50:44;99471.88;;;8.80;100.00
12203;BME280;6164;42.178;24.622;2023-04-24T02:53:10;99460.03;;;8.76;100.00
12203;BME280;6164;42.178;24.622;2023-04-24T02:55:37;99468.56;;;8.78;100.00
12203;BME280;6164;42.178;24.622;2023-04-24T02:58:04;99469.88;;;8.74;100.00
12203;BME280;6164;42.178;24.622;2023-04-24T03:00:31;99467.59;;;8.71;100.00
12203;BME280;6164;42.178;24.622;2023-04-24T03:02:58;99471.34;;;8.69;100.00
12203;BME280;6164;42.178;24.622;2023-04-24T03:05:26;99472.50;;;8.66;100.00
12203;BME280;6164;42.178;24.622;2023-04-24T03:07:53;99470.81;;;8.65;100.00
12203;BME280;6164;42.178;24.622;2023-04-24T03:10:20;99469.97;;;8.57;100.00
12203;BME280;6164;42.178;24.622;2023-04-24T03:12:47;99466.03;;;8.53;100.00
12203;BME280;6164;42.178;24.622;2023-04-24T03:15:15;99464.88;;;8.55;100.00
12203;BME280;6164;42.178;24.622;2023-04-24T03:17:41;99474.78;;;8.61;100.00
12203;BME280;6164;42.178;24.622;2023-04-24T03:20:09;99447.91;;;8.42;100.00
12203;BME280;6164;42.178;24.622;2023-04-24T03:22:37;99484.81;;;8.66;100.00
12203;BME280;6164;42.178;24.622;2023-04-24T03:25:04;99492.88;;;8.64;100.00
12203;BME280;6164;42.178;24.622;2023-04-24T03:27:31;99492.53;;;8.59;100.00
12203;BME280;6164;42.178;24.622;2023-04-24T03:29:58;99494.97;;;8.53;100.00
12203;BME280;6164;42.178;24.622;2023-04-24T03:32:26;99492.34;;;8.53;100.00
12203;BME280;6164;42.178;24.622;2023-04-24T03:34:53;99482.94;;;8.50;100.00
12203;BME280;6164;42.178;24.622;2023-04-24T03:37:19;99502.03;;;8.52;100.00
12203;BME280;6164;42.178;24.622;2023-04-24T03:39:47;99495.94;;;8.52;100.00
12203;BME280;6164;42.178;24.622;2023-04-24T03:42:14;99481.63;;;8.46;100.00
12203;BME280;6164;42.178;24.622;2023-04-24T03:44:41;99488.84;;;8.44;100.00
12203;BME280;6164;42.178;24.622;2023-04-24T03:47:07;99494.72;;;8.38;100.00
12203;BME280;6164;42.178;24.622;2023-04-24T03:49:34;99489.47;;;8.21;100.00
12203;BME280;6164;42.178;24.622;2023-04-24T03:52:01;99498.91;;;8.23;100.00
12203;BME280;6164;42.178;24.622;2023-04-24T03:54:28;99497.13;;;8.24;100.00
12203;BME280;6164;42.178;24.622;2023-04-24T03:56:56;99499.59;;;8.25;100.00
12203;BME280;6164;42.178;24.622;2023-04-24T03:59:23;99502.22;;;8.25;100.00
12203;BME280;6164;42.178;24.622;2023-04-24T04:01:50;99496.50;;;8.30;100.00
12203;BME280;6164;42.178;24.622;2023-04-24T04:04:16;99501.16;;;8.18;100.00
12203;BME280;6164;42.178;24.622;2023-04-24T04:06:43;99501.16;;;8.18;100.00
12203;BME280;6164;42.178;24.622;2023-04-24T04:09:11;99501.00;;;8.20;100.00
12203;BME280;6164;42.178;24.622;2023-04-24T04:11:38;99512.19;;;8.22;100.00
12203;BME280;6164;42.178;24.622;2023-04-24T04:14:06;99514.63;;;8.15;100.00
12203;BME280;6164;42.178;24.622;2023-04-24T04:16:33;99517.25;;;8.15;100.00
12203;BME280;6164;42.178;24.622;2023-04-24T04:19:01;99518.88;;;8.16;100.00
12203;BME280;6164;42.178;24.622;2023-04-24T04:21:28;99516.84;;;8.02;100.00
12203;BME280;6164;42.178;24.622;2023-04-24T04:23:56;99506.84;;;7.88;100.00
12203;BME280;6164;42.178;24.622;2023-04-24T04:26:23;99515.56;;;7.88;100.00
12203;BME280;6164;42.178;24.622;2023-04-24T04:28:51;99519.50;;;8.10;100.00
12203;BME280;6164;42.178;24.622;2023-04-24T04:31:20;99502.03;;;8.01;100.00
12203;BME280;6164;42.178;24.622;2023-04-24T04:33:47;99520.31;;;8.28;100.00
12203;BME280;6164;42.178;24.622;2023-04-24T04:36:14;99511.63;;;8.36;100.00
12203;BME280;6164;42.178;24.622;2023-04-24T04:38:42;99515.34;;;8.51;100.00
12203;BME280;6164;42.178;24.622;2023-04-24T04:41:10;99507.19;;;8.70;100.00
12203;BME280;6164;42.178;24.622;2023-04-24T04:43:37;99514.66;;;8.82;100.00
12203;BME280;6164;42.178;24.622;2023-04-24T04:46:05;99511.72;;;8.93;100.00
12203;BME280;6164;42.178;24.622;2023-04-24T04:48:34;99506.66;;;9.08;100.00
12203;BME280;6164;42.178;24.622;2023-04-24T04:51:01;99503.41;;;9.22;100.00
12203;BME280;6164;42.178;24.622;2023-04-24T04:53:28;99504.44;;;9.45;100.00
12203;BME280;6164;42.178;24.622;2023-04-24T04:55:54;99511.34;;;9.62;100.00
12203;BME280;6164;42.178;24.622;2023-04-24T04:58:21;99509.88;;;9.68;100.00
12203;BME280;6164;42.178;24.622;2023-04-24T05:00:48;99509.56;;;9.71;100.00
12203;BME280;6164;42.178;24.622;2023-04-24T05:03:14;99500.81;;;9.86;100.00
12203;BME280;6164;42.178;24.622;2023-04-24T05:05:43;99467.38;;;9.71;100.00
12203;BME280;6164;42.178;24.622;2023-04-24T05:08:09;99505.75;;;10.05;100.00
12203;BME280;6164;42.178;24.622;2023-04-24T05:10:36;99505.44;;;10.08;100.00
12203;BME280;6164;42.178;24.622;2023-04-24T05:13:03;99495.88;;;10.15;100.00
12203;BME280;6164;42.178;24.622;2023-04-24T05:15:30;99494.00;;;10.32;100.00
12203;BME280;6164;42.178;24.622;2023-04-24T05:17:56;99490.69;;;10.46;100.00
12203;BME280;6164;42.178;24.622;2023-04-24T05:20:23;99483.38;;;10.56;100.00
12203;BME280;6164;42.178;24.622;2023-04-24T05:22:52;99475.41;;;10.72;100.00
12203;BME280;6164;42.178;24.622;2023-04-24T05:25:18;99483.59;;;10.85;100.00
12203;BME280;6164;42.178;24.622;2023-04-24T05:27:45;99467.34;;;10.96;100.00
12203;BME280;6164;42.178;24.622;2023-04-24T05:30:13;99463.16;;;11.10;100.00
12203;BME280;6164;42.178;24.622;2023-04-24T05:32:40;99458.59;;;11.26;100.00
12203;BME280;6164;42.178;24.622;2023-04-24T05:35:07;99462.91;;;11.42;100.00
12203;BME280;6164;42.178;24.622;2023-04-24T05:37:34;99460.38;;;11.48;100.00
12203;BME280;6164;42.178;24.622;2023-04-24T05:40:03;99455.31;;;11.61;100.00
12203;BME280;6164;42.178;24.622;2023-04-24T05:42:30;99463.06;;;11.71;100.00
12203;BME280;6164;42.178;24.622;2023-04-24T05:44:57;99472.75;;;11.78;100.00
12203;BME280;6164;42.178;24.622;2023-04-24T05:47:24;99472.66;;;11.86;100.00
12203;BME280;6164;42.178;24.622;2023-04-24T05:49:51;99480.34;;;11.96;100.00
12203;BME280;6164;42.178;24.622;2023-04-24T05:52:18;99475.44;;;12.08;100.00
12203;BME280;6164;42.178;24.622;2023-04-24T05:54:45;99472.53;;;12.17;100.00
12203;BME280;6164;42.178;24.622;2023-04-24T05:57:13;99476.09;;;12.24;100.00
12203;BME280;6164;42.178;24.622;2023-04-24T05:59:40;99467.63;;;12.29;100.00
12203;BME280;6164;42.178;24.622;2023-04-24T06:02:07;99434.66;;;12.17;100.00
12203;BME280;6164;42.178;24.622;2023-04-24T06:04:34;99476.91;;;12.54;100.00
12203;BME280;6164;42.178;24.622;2023-04-24T06:07:00;99478.94;;;12.66;100.00
12203;BME280;6164;42.178;24.622;2023-04-24T06:09:28;99476.53;;;12.86;100.00
12203;BME280;6164;42.178;24.622;2023-04-24T06:11:55;99476.88;;;12.97;100.00
12203;BME280;6164;42.178;24.622;2023-04-24T06:14:23;99474.28;;;13.18;100.00
12203;BME280;6164;42.178;24.622;2023-04-24T06:16:50;99462.97;;;13.31;100.00
12203;BME280;6164;42.178;24.622;2023-04-24T06:19:16;99448.09;;;13.30;100.00
12203;BME280;6164;42.178;24.622;2023-04-24T06:21:43;99475.06;;;13.55;100.00
12203;BME280;6164;42.178;24.622;2023-04-24T06:24:10;99474.03;;;13.77;100.00
12203;BME280;6164;42.178;24.622;2023-04-24T06:26:37;99473.56;;;13.94;100.00
12203;BME280;6164;42.178;24.622;2023-04-24T06:29:06;99476.50;;;14.06;100.00
12203;BME280;6164;42.178;24.622;2023-04-24T06:31:35;99472.75;;;14.21;99.17
12203;BME280;6164;42.178;24.622;2023-04-24T06:34:02;99472.22;;;14.32;97.62
12203;BME280;6164;42.178;24.622;2023-04-24T06:36:29;99468.03;;;14.44;95.98
12203;BME280;6164;42.178;24.622;2023-04-24T06:38:56;99465.00;;;14.54;95.45
12203;BME280;6164;42.178;24.622;2023-04-24T06:41:23;99461.19;;;14.70;94.72
12203;BME280;6164;42.178;24.622;2023-04-24T06:43:50;99472.63;;;14.70;93.97
12203;BME280;6164;42.178;24.622;2023-04-24T06:46:17;99480.09;;;14.94;92.42
12203;BME280;6164;42.178;24.622;2023-04-24T06:48:45;99483.63;;;15.08;88.29
12203;BME280;6164;42.178;24.622;2023-04-24T06:51:11;99487.53;;;15.12;86.60
12203;BME280;6164;42.178;24.622;2023-04-24T06:53:38;99482.03;;;15.13;84.53
12203;BME280;6164;42.178;24.622;2023-04-24T06:56:05;99487.31;;;15.07;85.60
12203;BME280;6164;42.178;24.622;2023-04-24T06:58:31;99488.53;;;15.11;86.79
12203;BME280;6164;42.178;24.622;2023-04-24T07:00:58;99477.69;;;15.12;85.80
12203;BME280;6164;42.178;24.622;2023-04-24T07:03:25;99493.91;;;15.24;85.25
12203;BME280;6164;42.178;24.622;2023-04-24T07:05:54;99492.03;;;15.11;83.81
12203;BME280;6164;42.178;24.622;2023-04-24T07:08:21;99472.03;;;15.28;82.81
12203;BME280;6164;42.178;24.622;2023-04-24T07:10:48;99476.81;;;15.46;82.39
12203;BME280;6164;42.178;24.622;2023-04-24T07:13:16;99482.78;;;15.67;81.62
12203;BME280;6164;42.178;24.622;2023-04-24T07:15:42;99484.63;;;15.80;82.07
12203;BME280;6164;42.178;24.622;2023-04-24T07:18:09;99487.47;;;15.98;80.40
12203;BME280;6164;42.178;24.622;2023-04-24T07:20:36;99478.28;;;15.94;79.42
12203;BME280;6164;42.178;24.622;2023-04-24T07:23:04;99480.31;;;16.05;80.32
12203;BME280;6164;42.178;24.622;2023-04-24T07:25:31;99481.34;;;16.11;80.33
12203;BME280;6164;42.178;24.622;2023-04-24T07:27:57;99478.66;;;16.30;80.00
12203;BME280;6164;42.178;24.622;2023-04-24T07:30:24;99479.47;;;16.44;79.40
12203;BME280;6164;42.178;24.622;2023-04-24T07:32:51;99481.06;;;16.64;78.01
12203;BME280;6164;42.178;24.622;2023-04-24T07:35:18;99471.00;;;16.73;77.39
12203;BME280;6164;42.178;24.622;2023-04-24T07:37:45;99472.75;;;16.92;76.99
12203;BME280;6164;42.178;24.622;2023-04-24T07:40:13;99470.03;;;17.12;74.29
12203;BME280;6164;42.178;24.622;2023-04-24T07:42:40;99462.91;;;17.30;74.13
12203;BME280;6164;42.178;24.622;2023-04-24T07:45:07;99468.44;;;17.35;74.61
12203;BME280;6164;42.178;24.622;2023-04-24T07:47:34;99477.56;;;17.59;75.52
12203;BME280;6164;42.178;24.622;2023-04-24T07:50:01;99475.06;;;17.64;72.94
12203;BME280;6164;42.178;24.622;2023-04-24T07:52:28;99476.16;;;17.50;71.99
12203;BME280;6164;42.178;24.622;2023-04-24T07:54:56;99472.94;;;17.41;72.43
12203;BME280;6164;42.178;24.622;2023-04-24T07:57:27;99448.38;;;17.26;71.51
12203;BME280;6164;42.178;24.622;2023-04-24T07:59:53;99462.25;;;17.48;72.19
12203;BME280;6164;42.178;24.622;2023-04-24T08:02:20;99462.41;;;17.53;71.37
12203;BME280;6164;42.178;24.622;2023-04-24T08:04:51;99457.44;;;17.56;71.00
12203;BME280;6164;42.178;24.622;2023-04-24T08:07:18;99457.78;;;17.66;70.60
12203;BME280;6164;42.178;24.622;2023-04-24T08:09:45;99457.66;;;17.79;70.21
12203;BME280;6164;42.178;24.622;2023-04-24T08:12:12;99458.34;;;17.75;70.35
12203;BME280;6164;42.178;24.622;2023-04-24T08:14:40;99446.59;;;17.82;71.67
12203;BME280;6164;42.178;24.622;2023-04-24T08:17:07;99448.97;;;17.90;72.04
12203;BME280;6164;42.178;24.622;2023-04-24T08:19:33;99458.06;;;17.83;70.24
12203;BME280;6164;42.178;24.622;2023-04-24T08:22:00;99451.66;;;17.90;71.48
12203;BME280;6164;42.178;24.622;2023-04-24T08:24:27;99444.66;;;17.89;70.58
12203;BME280;6164;42.178;24.622;2023-04-24T08:26:55;99442.88;;;17.83;71.20
12203;BME280;6164;42.178;24.622;2023-04-24T08:29:22;99439.09;;;17.91;71.99
12203;BME280;6164;42.178;24.622;2023-04-24T08:31:50;99432.22;;;18.01;71.51
12203;BME280;6164;42.178;24.622;2023-04-24T08:34:17;99434.22;;;18.06;71.06
12203;BME280;6164;42.178;24.622;2023-04-24T08:36:43;99429.22;;;17.91;69.87
12203;BME280;6164;42.178;24.622;2023-04-24T08:39:10;99430.16;;;18.03;70.75
12203;BME280;6164;42.178;24.622;2023-04-24T08:41:37;99424.59;;;18.05;71.18
12203;BME280;6164;42.178;24.622;2023-04-24T08:44:04;99429.25;;;18.09;70.37
12203;BME280;6164;42.178;24.622;2023-04-24T08:46:32;99415.16;;;17.78;71.17
12203;BME280;6164;42.178;24.622;2023-04-24T08:49:01;99410.47;;;17.98;70.76
12203;BME280;6164;42.178;24.622;2023-04-24T08:51:29;99411.69;;;18.02;71.27
12203;BME280;6164;42.178;24.622;2023-04-24T08:53:56;99419.31;;;17.98;69.81
12203;BME280;6164;42.178;24.622;2023-04-24T08:56:23;99412.63;;;18.07;70.49
12203;BME280;6164;42.178;24.622;2023-04-24T08:58:51;99410.06;;;18.19;69.36
12203;BME280;6164;42.178;24.622;2023-04-24T09:01:18;99409.03;;;18.20;69.90
12203;BME280;6164;42.178;24.622;2023-04-24T09:03:46;99406.88;;;18.28;73.22
12203;BME280;6164;42.178;24.622;2023-04-24T09:06:17;99407.13;;;18.45;70.88
12203;BME280;6164;42.178;24.622;2023-04-24T09:08:45;99406.47;;;18.50;71.07
12203;BME280;6164;42.178;24.622;2023-04-24T09:11:12;99401.78;;;18.63;71.50
12203;BME280;6164;42.178;24.622;2023-04-24T09:13:39;99419.06;;;18.79;69.77
12203;BME280;6164;42.178;24.622;2023-04-24T09:16:06;99409.34;;;18.84;67.61
12203;BME280;6164;42.178;24.622;2023-04-24T09:18:32;99398.53;;;18.61;68.37
12203;BME280;6164;42.178;24.622;2023-04-24T09:21:02;99402.78;;;18.80;69.43
12203;BME280;6164;42.178;24.622;2023-04-24T09:23:31;99401.31;;;18.84;68.85
12203;BME280;6164;42.178;24.622;2023-04-24T09:25:59;99394.91;;;19.15;67.21
12203;BME280;6164;42.178;24.622;2023-04-24T09:28:29;99387.56;;;19.40;68.27
12203;BME280;6164;42.178;24.622;2023-04-24T09:31:04;99391.78;;;19.59;67.04
12203;BME280;6164;42.178;24.622;2023-04-24T09:33:31;99387.38;;;19.76;65.47
12203;BME280;6164;42.178;24.622;2023-04-24T09:35:58;99404.03;;;19.90;63.45
12203;BME280;6164;42.178;24.622;2023-04-24T09:38:36;99395.53;;;20.04;63.50
12203;BME280;6164;42.178;24.622;2023-04-24T09:41:08;99392.25;;;20.14;62.53
12203;BME280;6164;42.178;24.622;2023-04-24T09:43:36;99382.59;;;20.01;62.09
12203;BME280;6164;42.178;24.622;2023-04-24T09:46:05;99403.00;;;20.25;60.87
12203;BME280;6164;42.178;24.622;2023-04-24T09:48:33;99360.34;;;20.01;61.45
12203;BME280;6164;42.178;24.622;2023-04-24T09:51:00;99383.41;;;20.25;62.44
12203;BME280;6164;42.178;24.622;2023-04-24T09:53:29;99376.63;;;20.45;63.24
12203;BME280;6164;42.178;24.622;2023-04-24T09:56:02;99383.16;;;20.26;60.89
12203;BME280;6164;42.178;24.622;2023-04-24T09:58:29;99375.59;;;20.35;61.18
12203;BME280;6164;42.178;24.622;2023-04-24T10:00:56;99364.25;;;20.56;61.85
12203;BME280;6164;42.178;24.622;2023-04-24T10:03:24;99356.22;;;20.72;61.46
12203;BME280;6164;42.178;24.622;2023-04-24T10:05:53;99355.47;;;21.00;61.38
12203;BME280;6164;42.178;24.622;2023-04-24T10:08:20;99349.47;;;21.10;60.03
12203;BME280;6164;42.178;24.622;2023-04-24T10:10:47;99366.81;;;21.35;58.68
12203;BME280;6164;42.178;24.622;2023-04-24T10:13:15;99367.13;;;21.39;57.76
12203;BME280;6164;42.178;24.622;2023-04-24T10:15:43;99358.59;;;21.42;58.07
12203;BME280;6164;42.178;24.622;2023-04-24T10:18:10;99351.00;;;21.22;58.00
12203;BME280;6164;42.178;24.622;2023-04-24T10:20:39;99342.25;;;21.27;57.86
12203;BME280;6164;42.178;24.622;2023-04-24T10:23:06;99358.13;;;21.45;56.72
12203;BME280;6164;42.178;24.622;2023-04-24T10:25:35;99334.59;;;21.52;58.63
12203;BME280;6164;42.178;24.622;2023-04-24T10:28:02;99338.09;;;21.52;57.49
12203;BME280;6164;42.178;24.622;2023-04-24T10:30:32;99325.72;;;21.51;58.75
12203;BME280;6164;42.178;24.622;2023-04-24T10:33:02;99321.81;;;21.59;58.65
12203;BME280;6164;42.178;24.622;2023-04-24T10:35:30;99319.28;;;21.69;58.47
12203;BME280;6164;42.178;24.622;2023-04-24T10:38:00;99335.22;;;21.75;57.89
12203;BME280;6164;42.178;24.622;2023-04-24T10:40:31;99336.41;;;21.79;56.85
12203;BME280;6164;42.178;24.622;2023-04-24T10:42:58;99328.88;;;21.81;56.93
12203;BME280;6164;42.178;24.622;2023-04-24T10:45:25;99329.03;;;21.91;56.28
12203;BME280;6164;42.178;24.622;2023-04-24T10:47:56;99310.47;;;21.90;55.74
12203;BME280;6164;42.178;24.622;2023-04-24T10:50:25;99316.63;;;22.07;56.53
12203;BME280;6164;42.178;24.622;2023-04-24T10:52:52;99327.84;;;22.21;55.65
12203;BME280;6164;42.178;24.622;2023-04-24T10:55:46;99327.22;;;22.35;55.11
12203;BME280;6164;42.178;24.622;2023-04-24T10:58:13;99308.31;;;22.52;56.06
12203;BME280;6164;42.178;24.622;2023-04-24T11:00:43;99317.13;;;22.69;55.46
12203;BME280;6164;42.178;24.622;2023-04-24T11:03:25;99318.25;;;22.51;54.62
12203;BME280;6164;42.178;24.622;2023-04-24T11:05:56;99330.09;;;22.29;53.03
12203;BME280;6164;42.178;24.622;2023-04-24T11:08:25;99308.69;;;22.39;54.58
12203;BME280;6164;42.178;24.622;2023-04-24T11:14:03;99303.06;;;22.62;54.25
12203;BME280;6164;42.178;24.622;2023-04-24T11:16:33;99290.53;;;22.72;54.75
12203;BME280;6164;42.178;24.622;2023-04-24T11:19:05;99263.25;;;22.64;54.67
12203;BME280;6164;42.178;24.622;2023-04-24T11:21:39;99290.88;;;22.81;53.27
12203;BME280;6164;42.178;24.622;2023-04-24T11:24:27;99286.25;;;23.03;53.34
12203;BME280;6164;42.178;24.622;2023-04-24T11:26:56;99298.47;;;23.15;52.87
12203;BME280;6164;42.178;24.622;2023-04-24T11:29:38;99304.66;;;23.48;52.07
12203;BME280;6164;42.178;24.622;2023-04-24T11:32:15;99315.25;;;23.59;50.90
12203;BME280;6164;42.178;24.622;2023-04-24T11:34:47;99318.00;;;23.64;50.51
12203;BME280;6164;42.178;24.622;2023-04-24T11:37:14;99301.88;;;23.74;51.32
12203;BME280;6164;42.178;24.622;2023-04-24T11:39:41;99303.88;;;23.94;50.63
12203;BME280;6164;42.178;24.622;2023-04-24T11:42:10;99295.81;;;23.94;50.83
12203;BME280;6164;42.178;24.622;2023-04-24T11:44:41;99265.47;;;24.08;52.42
12203;BME280;6164;42.178;24.622;2023-04-24T11:47:08;99282.44;;;24.14;50.34
12203;BME280;6164;42.178;24.622;2023-04-24T11:49:36;99282.22;;;24.25;50.12
12203;BME280;6164;42.178;24.622;2023-04-24T11:52:05;99277.63;;;24.16;50.03
12203;BME280;6164;42.178;24.622;2023-04-24T11:54:32;99260.09;;;24.18;50.20
12203;BME280;6164;42.178;24.622;2023-04-24T11:56:58;99276.31;;;24.28;48.61
12203;BME280;6164;42.178;24.622;2023-04-24T11:59:25;99273.66;;;24.48;49.69
12203;BME280;6164;42.178;24.622;2023-04-24T12:01:52;99262.97;;;24.74;49.14
12203;BME280;6164;42.178;24.622;2023-04-24T12:04:19;99250.81;;;24.86;49.55
12203;BME280;6164;42.178;24.622;2023-04-24T12:07:01;99263.00;;;24.94;48.71
12203;BME280;6164;42.178;24.622;2023-04-24T12:09:40;99270.00;;;25.00;48.27
12203;BME280;6164;42.178;24.622;2023-04-24T12:12:11;99257.88;;;24.97;47.98
12203;BME280;6164;42.178;24.622;2023-04-24T12:14:47;99239.22;;;25.11;48.50
12203;BME280;6164;42.178;24.622;2023-04-24T12:17:14;99224.91;;;25.25;48.81
12203;BME280;6164;42.178;24.622;2023-04-24T12:19:45;99228.69;;;25.49;48.65
12203;BME280;6164;42.178;24.622;2023-04-24T12:22:15;99230.81;;;25.57;47.32
12203;BME280;6164;42.178;24.622;2023-04-24T12:25:00;99219.25;;;25.42;48.18
12203;BME280;6164;42.178;24.622;2023-04-24T12:27:30;99218.41;;;25.56;48.05
12203;BME280;6164;42.178;24.622;2023-04-24T12:29:58;99224.66;;;25.37;47.16
12203;BME280;6164;42.178;24.622;2023-04-24T12:32:29;99218.91;;;25.63;47.18
12203;BME280;6164;42.178;24.622;2023-04-24T12:34:55;99216.69;;;25.80;46.98
12203;BME280;6164;42.178;24.622;2023-04-24T12:37:24;99176.47;;;25.59;47.96
12203;BME280;6164;42.178;24.622;2023-04-24T12:40:05;99203.94;;;25.91;46.48
12203;BME280;6164;42.178;24.622;2023-04-24T12:42:36;99200.97;;;25.92;47.16
12203;BME280;6164;42.178;24.622;2023-04-24T12:45:08;99196.00;;;26.15;46.95
12203;BME280;6164;42.178;24.622;2023-04-24T12:47:37;99216.31;;;26.17;45.51
12203;BME280;6164;42.178;24.622;2023-04-24T12:50:05;99210.66;;;26.09;44.40
12203;BME280;6164;42.178;24.622;2023-04-24T12:52:35;99233.56;;;26.26;44.57
12203;BME280;6164;42.178;24.622;2023-04-24T12:55:04;99201.84;;;26.37;45.07
12203;BME280;6164;42.178;24.622;2023-04-24T12:57:33;99204.59;;;26.27;44.90
12203;BME280;6164;42.178;24.622;2023-04-24T13:00:01;99177.81;;;26.25;45.39
12203;BME280;6164;42.178;24.622;2023-04-24T13:02:29;99176.22;;;26.24;45.80
12203;BME280;6164;42.178;24.622;2023-04-24T13:04:57;99164.28;;;26.30;45.88
12203;BME280;6164;42.178;24.622;2023-04-24T13:07:24;99155.34;;;26.30;46.46